Busick, North Carolina
Current Conditions -  °F | °C
As of 4:54 PM on Tuesday 21 Oct 2014 (Local Time) from KBUY Reporting Station
Scattered Clouds Scattered Clouds  
Wind Chill: 70°   Ceiling: Unl
Heat Index: 70°   Visibility: 10mi
Dew Point: 44°   Wind: 8mph
Humidity: 39%   Direction: 320°NW
Pressure: 29.85"   Gusts: NA
Location:  36.2136°N, 79.6775°W
Report Text: KBUY 212054Z AUTO 32007KT 10SM SCT085 21/07 A2985 RMK AO2 SLP103 T02110067 55008
Loading
Personal Weather Stations






























Interactive Weather Map
Tropical Storm Tracking
New forecast layout! Learn more

10-Day Weather Forecast

Advertisements
Track Severe Weather on mobile